Terminal Aerodrome Forecast
Issued by NWS

Home | Current Version | Previous Version | Text Only | Print | Product List | Glossary On
Versions: 1 2 3 4 5 6 7 8 9 10 11 12 13 14
000
FTUS41 KBGM 260537
TAFRME
TAF
KRME 260537Z 2606/2706 28009KT P6SM OVC008
      TEMPO 2608/2612 SCT008 OVC012
     FM261400 27011G16KT 4SM -SHRA BR OVC008
     FM261800 28012G19KT P6SM OVC015
     FM262200 28008KT P6SM BKN030
     FM270100 VRB03KT P6SM FEW250=

USA.gov is the U.S. government's official web portal to all federal, state and local government web resources and services.